sensor_id;sensor_type;location;lat;lon;timestamp;P1;durP1;ratioP1;P2;durP2;ratioP2
68653;SDS011;55636;51.108;13.622;2023-05-14T00:00:32;10.50;;;9.33;;
68653;SDS011;55636;51.108;13.622;2023-05-14T00:01:34;10.00;;;9.07;;
68653;SDS011;55636;51.108;13.622;2023-05-14T00:02:37;10.48;;;9.38;;
68653;SDS011;55636;51.108;13.622;2023-05-14T00:03:39;10.75;;;9.65;;
68653;SDS011;55636;51.108;13.622;2023-05-14T00:04:42;10.50;;;9.43;;
68653;SDS011;55636;51.108;13.622;2023-05-14T00:05:44;10.63;;;9.63;;
68653;SDS011;55636;51.108;13.622;2023-05-14T00:06:46;11.25;;;10.00;;
68653;SDS011;55636;51.108;13.622;2023-05-14T00:07:49;10.82;;;9.73;;
68653;SDS011;55636;51.108;13.622;2023-05-14T00:08:51;10.40;;;9.40;;
68653;SDS011;55636;51.108;13.622;2023-05-14T00:09:53;10.70;;;9.60;;
68653;SDS011;55636;51.108;13.622;2023-05-14T00:10:55;11.00;;;9.90;;
68653;SDS011;55636;51.108;13.622;2023-05-14T00:11:58;10.80;;;9.80;;
68653;SDS011;55636;51.108;13.622;2023-05-14T00:13:00;10.67;;;9.60;;
68653;SDS011;55636;51.108;13.622;2023-05-14T00:14:02;10.80;;;9.40;;
68653;SDS011;55636;51.108;13.622;2023-05-14T00:15:05;10.57;;;9.57;;
68653;SDS011;55636;51.108;13.622;2023-05-14T00:16:08;10.77;;;9.27;;
68653;SDS011;55636;51.108;13.622;2023-05-14T00:17:10;10.32;;;9.32;;
68653;SDS011;55636;51.108;13.622;2023-05-14T00:18:12;10.35;;;9.25;;
68653;SDS011;55636;51.108;13.622;2023-05-14T00:19:15;10.50;;;9.47;;
68653;SDS011;55636;51.108;13.622;2023-05-14T00:20:17;10.60;;;9.50;;
68653;SDS011;55636;51.108;13.622;2023-05-14T00:21:19;11.05;;;9.40;;
68653;SDS011;55636;51.108;13.622;2023-05-14T00:22:22;10.43;;;9.32;;
68653;SDS011;55636;51.108;13.622;2023-05-14T00:23:24;10.53;;;9.43;;
68653;SDS011;55636;51.108;13.622;2023-05-14T00:24:26;10.38;;;9.27;;
68653;SDS011;55636;51.108;13.622;2023-05-14T00:25:29;10.27;;;9.27;;
68653;SDS011;55636;51.108;13.622;2023-05-14T00:26:31;9.70;;;8.70;;
68653;SDS011;55636;51.108;13.622;2023-05-14T00:27:34;9.50;;;8.60;;
68653;SDS011;55636;51.108;13.622;2023-05-14T00:28:37;9.77;;;8.88;;
68653;SDS011;55636;51.108;13.622;2023-05-14T00:29:39;9.50;;;8.70;;
68653;SDS011;55636;51.108;13.622;2023-05-14T00:30:41;9.98;;;9.07;;
68653;SDS011;55636;51.108;13.622;2023-05-14T00:31:43;9.95;;;8.95;;
68653;SDS011;55636;51.108;13.622;2023-05-14T00:32:46;9.83;;;8.93;;
68653;SDS011;55636;51.108;13.622;2023-05-14T00:33:48;10.70;;;8.93;;
68653;SDS011;55636;51.108;13.622;2023-05-14T00:34:51;9.82;;;8.93;;
68653;SDS011;55636;51.108;13.622;2023-05-14T00:35:53;10.60;;;9.60;;
68653;SDS011;55636;51.108;13.622;2023-05-14T00:36:55;10.00;;;8.90;;
68653;SDS011;55636;51.108;13.622;2023-05-14T00:37:57;10.15;;;9.25;;
68653;SDS011;55636;51.108;13.622;2023-05-14T00:39:00;10.77;;;9.45;;
68653;SDS011;55636;51.108;13.622;2023-05-14T00:40:02;10.13;;;9.23;;
68653;SDS011;55636;51.108;13.622;2023-05-14T00:41:05;9.85;;;8.88;;
68653;SDS011;55636;51.108;13.622;2023-05-14T00:42:07;12.20;;;9.32;;
68653;SDS011;55636;51.108;13.622;2023-05-14T00:43:10;10.05;;;9.02;;
68653;SDS011;55636;51.108;13.622;2023-05-14T00:44:13;10.35;;;9.30;;
68653;SDS011;55636;51.108;13.622;2023-05-14T00:45:15;11.13;;;9.68;;
68653;SDS011;55636;51.108;13.622;2023-05-14T00:46:18;10.13;;;9.07;;
68653;SDS011;55636;51.108;13.622;2023-05-14T00:47:20;10.43;;;9.43;;
68653;SDS011;55636;51.108;13.622;2023-05-14T00:48:23;10.05;;;9.00;;
68653;SDS011;55636;51.108;13.622;2023-05-14T00:49:26;9.88;;;8.88;;
68653;SDS011;55636;51.108;13.622;2023-05-14T00:50:29;10.15;;;9.20;;
68653;SDS011;55636;51.108;13.622;2023-05-14T00:51:31;10.02;;;9.02;;
68653;SDS011;55636;51.108;13.622;2023-05-14T00:52:34;10.18;;;9.18;;
68653;SDS011;55636;51.108;13.622;2023-05-14T00:53:38;9.77;;;8.88;;
68653;SDS011;55636;51.108;13.622;2023-05-14T00:54:41;9.75;;;8.85;;
68653;SDS011;55636;51.108;13.622;2023-05-14T00:55:43;9.93;;;9.02;;
68653;SDS011;55636;51.108;13.622;2023-05-14T00:56:47;9.88;;;8.98;;
68653;SDS011;55636;51.108;13.622;2023-05-14T00:57:50;9.02;;;8.13;;
68653;SDS011;55636;51.108;13.622;2023-05-14T00:58:55;9.73;;;8.85;;
68653;SDS011;55636;51.108;13.622;2023-05-14T00:59:57;9.52;;;8.63;;
68653;SDS011;55636;51.108;13.622;2023-05-14T01:01:00;9.85;;;8.90;;
68653;SDS011;55636;51.108;13.622;2023-05-14T01:02:03;9.73;;;8.82;;
68653;SDS011;55636;51.108;13.622;2023-05-14T01:03:06;9.48;;;8.52;;
68653;SDS011;55636;51.108;13.622;2023-05-14T01:04:10;10.23;;;9.20;;
68653;SDS011;55636;51.108;13.622;2023-05-14T01:05:13;9.48;;;8.60;;
68653;SDS011;55636;51.108;13.622;2023-05-14T01:06:17;9.63;;;8.80;;
68653;SDS011;55636;51.108;13.622;2023-05-14T01:07:38;9.10;;;8.30;;
68653;SDS011;55636;51.108;13.622;2023-05-14T01:10:00;9.77;;;8.82;;
68653;SDS011;55636;51.108;13.622;2023-05-14T01:11:10;9.25;;;8.48;;
68653;SDS011;55636;51.108;13.622;2023-05-14T01:12:20;9.43;;;8.50;;
68653;SDS011;55636;51.108;13.622;2023-05-14T01:15:56;9.63;;;8.73;;
68653;SDS011;55636;51.108;13.622;2023-05-14T01:17:01;9.48;;;8.57;;
68653;SDS011;55636;51.108;13.622;2023-05-14T01:18:09;9.38;;;8.48;;
68653;SDS011;55636;51.108;13.622;2023-05-14T01:19:18;9.57;;;8.57;;
68653;SDS011;55636;51.108;13.622;2023-05-14T01:20:27;9.13;;;8.32;;
68653;SDS011;55636;51.108;13.622;2023-05-14T01:21:37;8.80;;;8.00;;
68653;SDS011;55636;51.108;13.622;2023-05-14T01:22:41;9.32;;;8.45;;
68653;SDS011;55636;51.108;13.622;2023-05-14T01:23:44;9.55;;;8.65;;
68653;SDS011;55636;51.108;13.622;2023-05-14T01:24:46;9.40;;;8.30;;
68653;SDS011;55636;51.108;13.622;2023-05-14T01:25:48;8.95;;;8.05;;
68653;SDS011;55636;51.108;13.622;2023-05-14T01:26:51;10.80;;;8.73;;
68653;SDS011;55636;51.108;13.622;2023-05-14T01:28:05;9.15;;;8.35;;
68653;SDS011;55636;51.108;13.622;2023-05-14T01:29:22;9.32;;;8.43;;
68653;SDS011;55636;51.108;13.622;2023-05-14T01:30:36;9.27;;;8.40;;
68653;SDS011;55636;51.108;13.622;2023-05-14T01:31:44;9.10;;;8.30;;
68653;SDS011;55636;51.108;13.622;2023-05-14T01:32:52;9.38;;;8.43;;
68653;SDS011;55636;51.108;13.622;2023-05-14T01:33:57;9.23;;;8.32;;
68653;SDS011;55636;51.108;13.622;2023-05-14T01:35:01;9.43;;;8.47;;
68653;SDS011;55636;51.108;13.622;2023-05-14T01:36:04;9.55;;;8.60;;
68653;SDS011;55636;51.108;13.622;2023-05-14T01:37:07;9.63;;;8.50;;
68653;SDS011;55636;51.108;13.622;2023-05-14T01:38:11;9.25;;;8.45;;
68653;SDS011;55636;51.108;13.622;2023-05-14T01:39:15;9.83;;;8.67;;
68653;SDS011;55636;51.108;13.622;2023-05-14T01:40:19;10.32;;;9.32;;
68653;SDS011;55636;51.108;13.622;2023-05-14T01:41:22;9.90;;;9.00;;
68653;SDS011;55636;51.108;13.622;2023-05-14T01:42:26;9.77;;;8.87;;
68653;SDS011;55636;51.108;13.622;2023-05-14T01:43:29;9.67;;;8.67;;
68653;SDS011;55636;51.108;13.622;2023-05-14T01:44:32;10.30;;;9.00;;
68653;SDS011;55636;51.108;13.622;2023-05-14T01:45:35;10.25;;;9.25;;
68653;SDS011;55636;51.108;13.622;2023-05-14T01:46:38;11.00;;;9.07;;
68653;SDS011;55636;51.108;13.622;2023-05-14T01:47:40;9.67;;;8.73;;
68653;SDS011;55636;51.108;13.622;2023-05-14T01:48:43;9.15;;;8.35;;
68653;SDS011;55636;51.108;13.622;2023-05-14T01:49:45;9.77;;;8.57;;
68653;SDS011;55636;51.108;13.622;2023-05-14T01:50:47;9.88;;;8.98;;
68653;SDS011;55636;51.108;13.622;2023-05-14T01:51:49;10.30;;;9.20;;
68653;SDS011;55636;51.108;13.622;2023-05-14T01:52:52;10.43;;;9.40;;
68653;SDS011;55636;51.108;13.622;2023-05-14T01:53:57;10.57;;;9.57;;
68653;SDS011;55636;51.108;13.622;2023-05-14T01:55:00;10.70;;;9.70;;
68653;SDS011;55636;51.108;13.622;2023-05-14T01:56:02;11.10;;;10.10;;
68653;SDS011;55636;51.108;13.622;2023-05-14T01:57:04;10.55;;;9.63;;
68653;SDS011;55636;51.108;13.622;2023-05-14T01:58:07;10.47;;;9.37;;
68653;SDS011;55636;51.108;13.622;2023-05-14T01:59:09;11.23;;;9.97;;
68653;SDS011;55636;51.108;13.622;2023-05-14T02:00:11;10.87;;;9.77;;
68653;SDS011;55636;51.108;13.622;2023-05-14T02:01:14;10.53;;;9.53;;
68653;SDS011;55636;51.108;13.622;2023-05-14T02:02:17;10.67;;;9.60;;
68653;SDS011;55636;51.108;13.622;2023-05-14T02:03:19;10.73;;;9.75;;
68653;SDS011;55636;51.108;13.622;2023-05-14T02:04:21;10.50;;;9.47;;
68653;SDS011;55636;51.108;13.622;2023-05-14T02:05:24;10.73;;;9.73;;
68653;SDS011;55636;51.108;13.622;2023-05-14T02:06:28;10.60;;;9.60;;
68653;SDS011;55636;51.108;13.622;2023-05-14T02:07:30;10.67;;;9.67;;
68653;SDS011;55636;51.108;13.622;2023-05-14T02:08:33;10.80;;;9.80;;
68653;SDS011;55636;51.108;13.622;2023-05-14T02:09:35;11.57;;;10.47;;
68653;SDS011;55636;51.108;13.622;2023-05-14T02:10:37;11.40;;;10.10;;
68653;SDS011;55636;51.108;13.622;2023-05-14T02:11:39;10.57;;;9.50;;
68653;SDS011;55636;51.108;13.622;2023-05-14T02:12:42;11.00;;;9.90;;
68653;SDS011;55636;51.108;13.622;2023-05-14T02:13:44;11.30;;;10.20;;
68653;SDS011;55636;51.108;13.622;2023-05-14T02:14:46;10.53;;;9.53;;
68653;SDS011;55636;51.108;13.622;2023-05-14T02:15:49;11.20;;;10.07;;
68653;SDS011;55636;51.108;13.622;2023-05-14T02:16:51;10.53;;;9.53;;
68653;SDS011;55636;51.108;13.622;2023-05-14T02:17:53;10.50;;;9.50;;
68653;SDS011;55636;51.108;13.622;2023-05-14T02:18:56;10.87;;;9.87;;
68653;SDS011;55636;51.108;13.622;2023-05-14T02:19:58;10.60;;;9.60;;
68653;SDS011;55636;51.108;13.622;2023-05-14T02:21:00;9.48;;;8.57;;
68653;SDS011;55636;51.108;13.622;2023-05-14T02:22:03;10.17;;;9.17;;
68653;SDS011;55636;51.108;13.622;2023-05-14T02:23:06;10.33;;;9.33;;
68653;SDS011;55636;51.108;13.622;2023-05-14T02:24:08;10.57;;;9.57;;
68653;SDS011;55636;51.108;13.622;2023-05-14T02:25:10;11.03;;;9.30;;
68653;SDS011;55636;51.108;13.622;2023-05-14T02:26:13;10.65;;;9.65;;
68653;SDS011;55636;51.108;13.622;2023-05-14T02:27:15;10.47;;;9.47;;
68653;SDS011;55636;51.108;13.622;2023-05-14T02:28:18;10.70;;;9.60;;
68653;SDS011;55636;51.108;13.622;2023-05-14T02:29:20;11.30;;;10.13;;
68653;SDS011;55636;51.108;13.622;2023-05-14T02:30:22;11.13;;;10.03;;
68653;SDS011;55636;51.108;13.622;2023-05-14T02:31:25;10.00;;;9.10;;
68653;SDS011;55636;51.108;13.622;2023-05-14T02:32:27;10.50;;;9.50;;
68653;SDS011;55636;51.108;13.622;2023-05-14T02:33:30;10.37;;;9.37;;
68653;SDS011;55636;51.108;13.622;2023-05-14T02:34:33;10.43;;;9.37;;
68653;SDS011;55636;51.108;13.622;2023-05-14T02:35:35;10.53;;;9.43;;
68653;SDS011;55636;51.108;13.622;2023-05-14T02:36:38;10.40;;;9.30;;
68653;SDS011;55636;51.108;13.622;2023-05-14T02:37:41;9.47;;;8.57;;
68653;SDS011;55636;51.108;13.622;2023-05-14T02:38:43;10.20;;;9.17;;
68653;SDS011;55636;51.108;13.622;2023-05-14T02:39:45;10.07;;;9.10;;
68653;SDS011;55636;51.108;13.622;2023-05-14T02:40:49;10.40;;;9.40;;
68653;SDS011;55636;51.108;13.622;2023-05-14T02:41:52;9.70;;;8.80;;
68653;SDS011;55636;51.108;13.622;2023-05-14T02:42:54;10.93;;;9.80;;
68653;SDS011;55636;51.108;13.622;2023-05-14T02:43:56;10.33;;;9.23;;
68653;SDS011;55636;51.108;13.622;2023-05-14T02:44:59;11.03;;;9.93;;
68653;SDS011;55636;51.108;13.622;2023-05-14T02:46:01;11.63;;;10.20;;
68653;SDS011;55636;51.108;13.622;2023-05-14T02:47:04;11.77;;;10.10;;
68653;SDS011;55636;51.108;13.622;2023-05-14T02:48:06;11.27;;;10.17;;
68653;SDS011;55636;51.108;13.622;2023-05-14T02:49:09;10.97;;;9.87;;
68653;SDS011;55636;51.108;13.622;2023-05-14T02:50:11;11.07;;;9.83;;
68653;SDS011;55636;51.108;13.622;2023-05-14T02:51:14;11.10;;;10.00;;
68653;SDS011;55636;51.108;13.622;2023-05-14T02:52:17;10.73;;;9.73;;
68653;SDS011;55636;51.108;13.622;2023-05-14T02:53:19;11.23;;;10.13;;
68653;SDS011;55636;51.108;13.622;2023-05-14T02:54:21;10.60;;;9.53;;
68653;SDS011;55636;51.108;13.622;2023-05-14T02:55:24;10.73;;;9.73;;
68653;SDS011;55636;51.108;13.622;2023-05-14T02:56:27;12.13;;;9.70;;
68653;SDS011;55636;51.108;13.622;2023-05-14T02:57:29;10.93;;;9.93;;
68653;SDS011;55636;51.108;13.622;2023-05-14T02:58:32;10.90;;;9.80;;
68653;SDS011;55636;51.108;13.622;2023-05-14T02:59:34;10.97;;;9.83;;
68653;SDS011;55636;51.108;13.622;2023-05-14T03:00:37;11.30;;;10.00;;
68653;SDS011;55636;51.108;13.622;2023-05-14T03:01:40;10.73;;;9.70;;
68653;SDS011;55636;51.108;13.622;2023-05-14T03:02:43;10.70;;;9.60;;
68653;SDS011;55636;51.108;13.622;2023-05-14T03:03:46;10.70;;;9.60;;
68653;SDS011;55636;51.108;13.622;2023-05-14T03:04:48;10.30;;;9.40;;
68653;SDS011;55636;51.108;13.622;2023-05-14T03:05:51;10.10;;;9.10;;
68653;SDS011;55636;51.108;13.622;2023-05-14T03:06:53;10.53;;;9.53;;
68653;SDS011;55636;51.108;13.622;2023-05-14T03:07:56;10.40;;;9.40;;
68653;SDS011;55636;51.108;13.622;2023-05-14T03:08:59;10.97;;;9.87;;
68653;SDS011;55636;51.108;13.622;2023-05-14T03:10:01;10.23;;;9.23;;
68653;SDS011;55636;51.108;13.622;2023-05-14T03:11:04;10.57;;;9.37;;
68653;SDS011;55636;51.108;13.622;2023-05-14T03:12:07;10.53;;;9.47;;
68653;SDS011;55636;51.108;13.622;2023-05-14T03:13:10;10.60;;;9.60;;
68653;SDS011;55636;51.108;13.622;2023-05-14T03:14:12;10.53;;;9.53;;
68653;SDS011;55636;51.108;13.622;2023-05-14T03:15:14;10.93;;;10.00;;
68653;SDS011;55636;51.108;13.622;2023-05-14T03:16:17;10.60;;;9.60;;
68653;SDS011;55636;51.108;13.622;2023-05-14T03:17:19;11.27;;;10.10;;
68653;SDS011;55636;51.108;13.622;2023-05-14T03:18:21;11.37;;;10.27;;
68653;SDS011;55636;51.108;13.622;2023-05-14T03:19:24;11.00;;;9.90;;
68653;SDS011;55636;51.108;13.622;2023-05-14T03:20:26;11.20;;;10.10;;
68653;SDS011;55636;51.108;13.622;2023-05-14T03:21:29;11.07;;;10.07;;
68653;SDS011;55636;51.108;13.622;2023-05-14T03:22:32;10.97;;;9.90;;
68653;SDS011;55636;51.108;13.622;2023-05-14T03:23:34;10.47;;;9.53;;
68653;SDS011;55636;51.108;13.622;2023-05-14T03:24:38;10.70;;;9.70;;
68653;SDS011;55636;51.108;13.622;2023-05-14T03:25:41;10.67;;;9.67;;
68653;SDS011;55636;51.108;13.622;2023-05-14T03:26:43;10.73;;;9.73;;
68653;SDS011;55636;51.108;13.622;2023-05-14T03:27:45;10.40;;;9.40;;
68653;SDS011;55636;51.108;13.622;2023-05-14T03:28:48;11.10;;;9.97;;
68653;SDS011;55636;51.108;13.622;2023-05-14T03:29:51;11.20;;;10.10;;
68653;SDS011;55636;51.108;13.622;2023-05-14T03:30:53;11.10;;;9.90;;
68653;SDS011;55636;51.108;13.622;2023-05-14T03:31:56;10.80;;;9.80;;
68653;SDS011;55636;51.108;13.622;2023-05-14T03:32:58;11.03;;;10.03;;
68653;SDS011;55636;51.108;13.622;2023-05-14T03:34:01;10.73;;;9.73;;
68653;SDS011;55636;51.108;13.622;2023-05-14T03:35:03;10.57;;;9.47;;
68653;SDS011;55636;51.108;13.622;2023-05-14T03:36:06;10.63;;;9.53;;
68653;SDS011;55636;51.108;13.622;2023-05-14T03:37:09;10.93;;;9.83;;
68653;SDS011;55636;51.108;13.622;2023-05-14T03:38:12;11.27;;;10.17;;
68653;SDS011;55636;51.108;13.622;2023-05-14T03:39:14;10.33;;;9.43;;
68653;SDS011;55636;51.108;13.622;2023-05-14T03:40:20;11.17;;;10.00;;
68653;SDS011;55636;51.108;13.622;2023-05-14T03:41:24;11.50;;;10.30;;
68653;SDS011;55636;51.108;13.622;2023-05-14T03:42:27;10.53;;;9.53;;
68653;SDS011;55636;51.108;13.622;2023-05-14T03:43:29;10.90;;;9.90;;
68653;SDS011;55636;51.108;13.622;2023-05-14T03:44:31;10.97;;;9.93;;
68653;SDS011;55636;51.108;13.622;2023-05-14T03:45:34;11.87;;;10.37;;
68653;SDS011;55636;51.108;13.622;2023-05-14T03:46:36;10.70;;;9.60;;
68653;SDS011;55636;51.108;13.622;2023-05-14T03:47:39;11.00;;;9.90;;
68653;SDS011;55636;51.108;13.622;2023-05-14T03:48:41;11.00;;;10.00;;
68653;SDS011;55636;51.108;13.622;2023-05-14T03:49:44;11.87;;;10.67;;
68653;SDS011;55636;51.108;13.622;2023-05-14T03:50:48;11.07;;;10.03;;
68653;SDS011;55636;51.108;13.622;2023-05-14T03:51:50;11.50;;;10.30;;
68653;SDS011;55636;51.108;13.622;2023-05-14T03:52:52;11.63;;;10.30;;
68653;SDS011;55636;51.108;13.622;2023-05-14T03:53:56;11.30;;;10.20;;
68653;SDS011;55636;51.108;13.622;2023-05-14T03:54:59;11.40;;;10.33;;
68653;SDS011;55636;51.108;13.622;2023-05-14T03:56:01;11.17;;;10.17;;
68653;SDS011;55636;51.108;13.622;2023-05-14T03:57:03;11.70;;;9.90;;
68653;SDS011;55636;51.108;13.622;2023-05-14T03:58:06;10.70;;;9.63;;
68653;SDS011;55636;51.108;13.622;2023-05-14T03:59:14;11.77;;;10.57;;
68653;SDS011;55636;51.108;13.622;2023-05-14T04:00:16;11.57;;;10.47;;
68653;SDS011;55636;51.108;13.622;2023-05-14T04:01:19;11.10;;;10.00;;
68653;SDS011;55636;51.108;13.622;2023-05-14T04:02:21;11.23;;;10.13;;
68653;SDS011;55636;51.108;13.622;2023-05-14T04:03:24;11.33;;;10.20;;
68653;SDS011;55636;51.108;13.622;2023-05-14T04:04:26;11.57;;;10.47;;
68653;SDS011;55636;51.108;13.622;2023-05-14T04:05:29;11.50;;;10.40;;
68653;SDS011;55636;51.108;13.622;2023-05-14T04:06:32;10.83;;;9.83;;
68653;SDS011;55636;51.108;13.622;2023-05-14T04:07:36;11.03;;;10.03;;
68653;SDS011;55636;51.108;13.622;2023-05-14T04:08:38;12.10;;;10.80;;
68653;SDS011;55636;51.108;13.622;2023-05-14T04:09:40;11.60;;;10.43;;
68653;SDS011;55636;51.108;13.622;2023-05-14T04:10:42;11.90;;;10.80;;
68653;SDS011;55636;51.108;13.622;2023-05-14T04:11:45;11.37;;;10.37;;
68653;SDS011;55636;51.108;13.622;2023-05-14T04:12:47;11.50;;;10.30;;
68653;SDS011;55636;51.108;13.622;2023-05-14T04:13:49;11.40;;;10.30;;
68653;SDS011;55636;51.108;13.622;2023-05-14T04:14:51;11.50;;;10.40;;
68653;SDS011;55636;51.108;13.622;2023-05-14T04:15:54;11.53;;;10.40;;
68653;SDS011;55636;51.108;13.622;2023-05-14T04:16:57;11.97;;;10.77;;
68653;SDS011;55636;51.108;13.622;2023-05-14T04:18:01;11.73;;;10.53;;
68653;SDS011;55636;51.108;13.622;2023-05-14T04:19:03;11.47;;;10.37;;
68653;SDS011;55636;51.108;13.622;2023-05-14T04:20:07;11.70;;;10.47;;
68653;SDS011;55636;51.108;13.622;2023-05-14T04:21:09;11.07;;;9.97;;
68653;SDS011;55636;51.108;13.622;2023-05-14T04:22:11;11.60;;;10.50;;
68653;SDS011;55636;51.108;13.622;2023-05-14T04:23:14;11.47;;;10.37;;
68653;SDS011;55636;51.108;13.622;2023-05-14T04:24:16;11.13;;;10.03;;
68653;SDS011;55636;51.108;13.622;2023-05-14T04:25:18;11.40;;;10.30;;
68653;SDS011;55636;51.108;13.622;2023-05-14T04:26:21;11.60;;;10.50;;
68653;SDS011;55636;51.108;13.622;2023-05-14T04:27:23;11.23;;;10.13;;
68653;SDS011;55636;51.108;13.622;2023-05-14T04:28:25;12.50;;;10.00;;
68653;SDS011;55636;51.108;13.622;2023-05-14T04:29:27;11.30;;;10.20;;
68653;SDS011;55636;51.108;13.622;2023-05-14T04:30:30;11.37;;;10.17;;
68653;SDS011;55636;51.108;13.622;2023-05-14T04:31:32;10.90;;;9.90;;
68653;SDS011;55636;51.108;13.622;2023-05-14T04:32:34;10.80;;;9.80;;
68653;SDS011;55636;51.108;13.622;2023-05-14T04:33:37;10.73;;;9.67;;
68653;SDS011;55636;51.108;13.622;2023-05-14T04:34:40;10.97;;;9.63;;
68653;SDS011;55636;51.108;13.622;2023-05-14T04:35:43;10.97;;;9.97;;
68653;SDS011;55636;51.108;13.622;2023-05-14T04:36:46;10.43;;;9.43;;
68653;SDS011;55636;51.108;13.622;2023-05-14T04:37:48;10.90;;;9.90;;
68653;SDS011;55636;51.108;13.622;2023-05-14T04:38:51;10.30;;;9.30;;
68653;SDS011;55636;51.108;13.622;2023-05-14T04:39:53;10.95;;;9.48;;
68653;SDS011;55636;51.108;13.622;2023-05-14T04:40:56;10.15;;;9.15;;
68653;SDS011;55636;51.108;13.622;2023-05-14T04:41:59;10.70;;;9.60;;
68653;SDS011;55636;51.108;13.622;2023-05-14T04:43:01;10.57;;;9.57;;
68653;SDS011;55636;51.108;13.622;2023-05-14T04:44:04;10.55;;;9.55;;
68653;SDS011;55636;51.108;13.622;2023-05-14T04:45:06;10.40;;;9.40;;
68653;SDS011;55636;51.108;13.622;2023-05-14T04:46:09;10.55;;;9.55;;
68653;SDS011;55636;51.108;13.622;2023-05-14T04:47:12;10.35;;;9.45;;
68653;SDS011;55636;51.108;13.622;2023-05-14T04:48:15;10.85;;;9.75;;
68653;SDS011;55636;51.108;13.622;2023-05-14T04:49:17;10.48;;;9.48;;
68653;SDS011;55636;51.108;13.622;2023-05-14T04:50:19;10.90;;;9.80;;
68653;SDS011;55636;51.108;13.622;2023-05-14T04:51:22;10.30;;;9.30;;
68653;SDS011;55636;51.108;13.622;2023-05-14T04:52:25;10.32;;;9.32;;
68653;SDS011;55636;51.108;13.622;2023-05-14T04:53:27;10.23;;;9.23;;
68653;SDS011;55636;51.108;13.622;2023-05-14T04:54:29;10.50;;;9.50;;
68653;SDS011;55636;51.108;13.622;2023-05-14T04:55:32;10.38;;;9.38;;
68653;SDS011;55636;51.108;13.622;2023-05-14T04:56:34;10.70;;;9.60;;
68653;SDS011;55636;51.108;13.622;2023-05-14T04:57:36;10.15;;;9.15;;
68653;SDS011;55636;51.108;13.622;2023-05-14T04:58:38;9.82;;;8.93;;
68653;SDS011;55636;51.108;13.622;2023-05-14T04:59:41;10.05;;;9.02;;
68653;SDS011;55636;51.108;13.622;2023-05-14T05:00:43;9.90;;;9.00;;
68653;SDS011;55636;51.108;13.622;2023-05-14T05:01:45;9.75;;;8.75;;
68653;SDS011;55636;51.108;13.622;2023-05-14T05:02:48;9.48;;;8.48;;
68653;SDS011;55636;51.108;13.622;2023-05-14T05:03:50;9.65;;;8.85;;
68653;SDS011;55636;51.108;13.622;2023-05-14T05:04:53;10.10;;;9.20;;
68653;SDS011;55636;51.108;13.622;2023-05-14T05:05:55;9.30;;;8.40;;
68653;SDS011;55636;51.108;13.622;2023-05-14T05:06:58;9.60;;;8.80;;
68653;SDS011;55636;51.108;13.622;2023-05-14T05:08:00;10.25;;;8.93;;
68653;SDS011;55636;51.108;13.622;2023-05-14T05:09:02;9.88;;;8.98;;
68653;SDS011;55636;51.108;13.622;2023-05-14T05:10:05;9.68;;;8.75;;
68653;SDS011;55636;51.108;13.622;2023-05-14T05:11:08;9.50;;;8.60;;
68653;SDS011;55636;51.108;13.622;2023-05-14T05:12:10;10.75;;;9.18;;
68653;SDS011;55636;51.108;13.622;2023-05-14T05:13:13;9.90;;;9.00;;
68653;SDS011;55636;51.108;13.622;2023-05-14T05:14:16;9.20;;;8.40;;
68653;SDS011;55636;51.108;13.622;2023-05-14T05:15:18;9.93;;;9.02;;
68653;SDS011;55636;51.108;13.622;2023-05-14T05:16:20;9.40;;;8.60;;
68653;SDS011;55636;51.108;13.622;2023-05-14T05:17:23;9.05;;;8.25;;
68653;SDS011;55636;51.108;13.622;2023-05-14T05:18:26;9.38;;;8.48;;
68653;SDS011;55636;51.108;13.622;2023-05-14T05:19:28;9.43;;;8.48;;
68653;SDS011;55636;51.108;13.622;2023-05-14T05:20:44;9.50;;;8.60;;
68653;SDS011;55636;51.108;13.622;2023-05-14T05:21:46;9.43;;;8.52;;
68653;SDS011;55636;51.108;13.622;2023-05-14T05:22:49;8.93;;;8.02;;
68653;SDS011;55636;51.108;13.622;2023-05-14T05:23:51;9.25;;;8.38;;
68653;SDS011;55636;51.108;13.622;2023-05-14T05:24:53;9.43;;;8.52;;
68653;SDS011;55636;51.108;13.622;2023-05-14T05:25:56;9.25;;;8.35;;
68653;SDS011;55636;51.108;13.622;2023-05-14T05:26:58;8.63;;;7.82;;
68653;SDS011;55636;51.108;13.622;2023-05-14T05:28:01;9.10;;;8.30;;
68653;SDS011;55636;51.108;13.622;2023-05-14T05:29:03;8.90;;;8.10;;
68653;SDS011;55636;51.108;13.622;2023-05-14T05:30:06;9.00;;;8.10;;
68653;SDS011;55636;51.108;13.622;2023-05-14T05:31:09;9.10;;;8.20;;
68653;SDS011;55636;51.108;13.622;2023-05-14T05:32:11;8.75;;;7.93;;
68653;SDS011;55636;51.108;13.622;2023-05-14T05:33:14;9.20;;;8.30;;
68653;SDS011;55636;51.108;13.622;2023-05-14T05:34:16;8.57;;;7.80;;
68653;SDS011;55636;51.108;13.622;2023-05-14T05:35:19;8.57;;;7.78;;
68653;SDS011;55636;51.108;13.622;2023-05-14T05:36:21;8.88;;;8.10;;
68653;SDS011;55636;51.108;13.622;2023-05-14T05:37:24;8.63;;;7.82;;
68653;SDS011;55636;51.108;13.622;2023-05-14T05:38:26;8.80;;;8.00;;
68653;SDS011;55636;51.108;13.622;2023-05-14T05:39:28;8.32;;;7.53;;
68653;SDS011;55636;51.108;13.622;2023-05-14T05:40:36;8.63;;;7.82;;
68653;SDS011;55636;51.108;13.622;2023-05-14T05:41:38;8.98;;;8.18;;
68653;SDS011;55636;51.108;13.622;2023-05-14T05:42:41;8.63;;;7.82;;
68653;SDS011;55636;51.108;13.622;2023-05-14T05:43:43;8.38;;;7.68;;
68653;SDS011;55636;51.108;13.622;2023-05-14T05:44:46;9.05;;;8.20;;
68653;SDS011;55636;51.108;13.622;2023-05-14T05:45:48;8.57;;;7.72;;
68653;SDS011;55636;51.108;13.622;2023-05-14T05:46:50;9.90;;;7.75;;
68653;SDS011;55636;51.108;13.622;2023-05-14T05:47:52;8.98;;;8.15;;
68653;SDS011;55636;51.108;13.622;2023-05-14T05:48:55;8.57;;;7.78;;
68653;SDS011;55636;51.108;13.622;2023-05-14T05:49:57;8.10;;;7.40;;
68653;SDS011;55636;51.108;13.622;2023-05-14T05:50:59;9.05;;;8.15;;
68653;SDS011;55636;51.108;13.622;2023-05-14T05:52:02;8.40;;;7.63;;
68653;SDS011;55636;51.108;13.622;2023-05-14T05:53:05;9.38;;;8.15;;
68653;SDS011;55636;51.108;13.622;2023-05-14T05:54:07;9.30;;;8.38;;
68653;SDS011;55636;51.108;13.622;2023-05-14T05:55:09;8.85;;;8.00;;
68653;SDS011;55636;51.108;13.622;2023-05-14T05:56:12;8.55;;;7.78;;
68653;SDS011;55636;51.108;13.622;2023-05-14T05:57:14;8.93;;;8.05;;
68653;SDS011;55636;51.108;13.622;2023-05-14T05:58:17;8.60;;;7.80;;
68653;SDS011;55636;51.108;13.622;2023-05-14T05:59:20;8.85;;;8.05;;
68653;SDS011;55636;51.108;13.622;2023-05-14T06:00:22;8.60;;;7.80;;
68653;SDS011;55636;51.108;13.622;2023-05-14T06:01:26;8.82;;;8.02;;
68653;SDS011;55636;51.108;13.622;2023-05-14T06:02:29;9.02;;;8.07;;
68653;SDS011;55636;51.108;13.622;2023-05-14T06:03:31;9.27;;;8.25;;
68653;SDS011;55636;51.108;13.622;2023-05-14T06:04:33;8.55;;;7.75;;
68653;SDS011;55636;51.108;13.622;2023-05-14T06:05:36;8.60;;;7.80;;
68653;SDS011;55636;51.108;13.622;2023-05-14T06:06:38;8.25;;;7.45;;
68653;SDS011;55636;51.108;13.622;2023-05-14T06:07:40;8.60;;;7.75;;
68653;SDS011;55636;51.108;13.622;2023-05-14T06:08:43;8.10;;;7.38;;
68653;SDS011;55636;51.108;13.622;2023-05-14T06:09:45;8.40;;;7.60;;
68653;SDS011;55636;51.108;13.622;2023-05-14T06:10:47;8.75;;;7.95;;
68653;SDS011;55636;51.108;13.622;2023-05-14T06:11:49;8.32;;;7.53;;
68653;SDS011;55636;51.108;13.622;2023-05-14T06:12:52;8.15;;;7.35;;